createdAt,value
2023-01-26T00:00:18.070Z,3.46
2023-01-26T00:02:46.392Z,3.71
2023-01-26T00:05:14.739Z,3.86
2023-01-26T00:07:45.701Z,4.01
2023-01-26T00:10:15.414Z,4.12
2023-01-26T00:12:44.157Z,4.01
2023-01-26T00:15:12.772Z,4.16
2023-01-26T00:17:41.743Z,4.33
2023-01-26T00:20:11.346Z,4.45
2023-01-26T00:22:40.171Z,4.46
2023-01-26T00:25:11.545Z,4.40
2023-01-26T00:27:39.916Z,4.10
2023-01-26T00:30:09.527Z,3.95
2023-01-26T00:32:39.237Z,4.12
2023-01-26T00:35:08.279Z,4.31
2023-01-26T00:37:38.084Z,4.41
2023-01-26T00:40:10.750Z,4.50
2023-01-26T00:42:40.100Z,4.53
2023-01-26T00:45:09.320Z,4.52
2023-01-26T00:47:37.768Z,4.54
2023-01-26T00:50:06.850Z,4.53
2023-01-26T00:52:35.356Z,4.56
2023-01-26T00:55:03.920Z,4.47
2023-01-26T00:57:32.649Z,4.20
2023-01-26T01:00:01.075Z,4.14
2023-01-26T01:02:29.866Z,4.10
2023-01-26T01:04:58.497Z,4.13
2023-01-26T01:07:29.280Z,4.07
2023-01-26T01:09:58.269Z,4.02
2023-01-26T01:12:28.077Z,4.01
2023-01-26T01:14:57.602Z,4.15
2023-01-26T01:17:26.223Z,4.32
2023-01-26T01:19:54.559Z,4.28
2023-01-26T01:22:23.478Z,4.28
2023-01-26T01:24:51.895Z,4.36
2023-01-26T01:27:20.292Z,4.41
2023-01-26T01:29:50.926Z,4.37
2023-01-26T01:32:20.234Z,4.45
2023-01-26T01:34:49.049Z,4.47
2023-01-26T01:37:17.783Z,4.46
2023-01-26T01:39:46.484Z,4.27
2023-01-26T01:42:15.218Z,4.15
2023-01-26T01:44:43.941Z,4.19
2023-01-26T01:47:17.282Z,4.23
2023-01-26T01:49:47.994Z,4.25
2023-01-26T01:52:27.203Z,4.35
2023-01-26T01:55:15.935Z,4.45
2023-01-26T01:57:51.892Z,4.36
2023-01-26T02:00:22.718Z,4.19
2023-01-26T02:03:13.841Z,4.20
2023-01-26T02:05:56.252Z,4.18
2023-01-26T02:08:31.637Z,4.10
2023-01-26T02:11:01.840Z,3.97
2023-01-26T02:13:31.990Z,3.90
2023-01-26T02:16:04.211Z,3.82
2023-01-26T02:18:32.992Z,3.79
2023-01-26T02:21:09.369Z,3.76
2023-01-26T02:24:02.891Z,3.66
2023-01-26T02:26:33.675Z,3.65
2023-01-26T02:29:05.062Z,3.71
2023-01-26T02:31:34.754Z,3.91
2023-01-26T02:34:03.073Z,3.97
2023-01-26T02:36:32.499Z,3.96
2023-01-26T02:39:19.827Z,4.10
2023-01-26T02:42:08.523Z,4.15
2023-01-26T02:44:38.975Z,4.00
2023-01-26T02:47:17.756Z,3.91
2023-01-26T02:49:47.234Z,3.93
2023-01-26T02:52:20.496Z,4.04
2023-01-26T02:55:14.273Z,4.04
2023-01-26T02:57:43.016Z,3.90
2023-01-26T03:00:17.250Z,3.63
2023-01-26T03:02:46.307Z,3.63
2023-01-26T03:05:14.829Z,3.77
2023-01-26T03:07:44.217Z,3.83
2023-01-26T03:10:13.512Z,3.97
2023-01-26T03:12:42.880Z,4.09
2023-01-26T03:15:31.690Z,4.15
2023-01-26T03:18:27.306Z,4.30
2023-01-26T03:21:14.442Z,4.17
2023-01-26T03:24:02.419Z,3.91
2023-01-26T03:26:50.206Z,3.72
2023-01-26T03:29:19.855Z,3.80
2023-01-26T03:31:48.578Z,3.86
2023-01-26T03:34:17.078Z,3.98
2023-01-26T03:36:47.452Z,3.97
2023-01-26T03:39:35.051Z,3.97
2023-01-26T03:42:23.967Z,3.99
2023-01-26T03:45:11.035Z,3.94
2023-01-26T03:47:59.528Z,3.88
2023-01-26T03:50:47.184Z,3.69
2023-01-26T03:53:37.269Z,3.67
2023-01-26T03:56:18.569Z,3.54
2023-01-26T03:58:52.692Z,3.52
2023-01-26T04:01:28.337Z,3.40
2023-01-26T04:04:19.387Z,3.35
2023-01-26T04:07:08.354Z,3.49
2023-01-26T04:09:39.863Z,3.29
2023-01-26T04:12:10.529Z,3.39
2023-01-26T04:15:05.623Z,3.51
2023-01-26T04:17:53.089Z,3.61
2023-01-26T04:20:40.301Z,3.45
2023-01-26T04:23:18.100Z,3.42
2023-01-26T04:25:48.006Z,3.41
2023-01-26T04:28:16.590Z,3.58
2023-01-26T04:30:45.839Z,3.28
2023-01-26T04:33:14.605Z,3.40
2023-01-26T04:35:42.972Z,3.46
2023-01-26T04:38:11.676Z,3.61
2023-01-26T04:40:43.043Z,3.63
2023-01-26T04:43:12.642Z,3.44
2023-01-26T04:45:41.163Z,3.43
2023-01-26T04:48:09.592Z,3.52
2023-01-26T04:50:38.368Z,3.56
2023-01-26T04:53:06.831Z,3.57
2023-01-26T04:55:35.637Z,3.39
2023-01-26T04:58:04.092Z,3.28
2023-01-26T05:00:33.451Z,3.24
2023-01-26T05:03:05.484Z,3.07
2023-01-26T05:05:38.487Z,3.03
2023-01-26T05:08:07.189Z,3.11
2023-01-26T05:10:36.522Z,3.19
2023-01-26T05:13:28.205Z,3.30
2023-01-26T05:16:17.528Z,3.23
2023-01-26T05:19:09.095Z,3.19
2023-01-26T05:21:52.291Z,3.16
2023-01-26T05:24:21.018Z,3.16
2023-01-26T05:27:21.683Z,3.08
2023-01-26T05:30:00.612Z,2.87
2023-01-26T05:32:30.915Z,2.62
2023-01-26T05:34:59.521Z,2.61
2023-01-26T05:37:28.363Z,2.75
2023-01-26T05:39:58.205Z,2.90
2023-01-26T05:42:27.938Z,2.86
2023-01-26T05:45:32.005Z,2.85
2023-01-26T05:48:02.793Z,3.01
2023-01-26T05:50:31.527Z,3.20
2023-01-26T05:53:15.487Z,3.07
2023-01-26T05:55:44.083Z,2.81
2023-01-26T05:58:13.031Z,2.86
2023-01-26T06:00:41.944Z,3.26
2023-01-26T06:03:13.987Z,3.31
2023-01-26T06:05:43.050Z,3.22
2023-01-26T06:08:23.808Z,3.21
2023-01-26T06:11:21.859Z,2.88
2023-01-26T06:14:10.659Z,2.84
2023-01-26T06:16:39.819Z,2.91
2023-01-26T06:19:12.207Z,2.99
2023-01-26T06:21:41.862Z,3.05
2023-01-26T06:24:10.447Z,3.04
2023-01-26T06:26:39.462Z,3.22
2023-01-26T06:29:09.239Z,3.29
2023-01-26T06:31:38.048Z,3.17
2023-01-26T06:34:08.144Z,3.36
2023-01-26T06:36:41.686Z,3.20
2023-01-26T06:39:14.481Z,3.15
2023-01-26T06:41:44.267Z,3.43
2023-01-26T06:44:14.264Z,3.37
2023-01-26T06:46:43.013Z,3.35
2023-01-26T06:49:11.563Z,3.35
2023-01-26T06:52:12.832Z,3.16
2023-01-26T06:54:51.210Z,3.06
2023-01-26T06:57:42.871Z,2.96
2023-01-26T07:00:26.031Z,3.22
2023-01-26T07:02:57.027Z,3.44
2023-01-26T07:05:25.727Z,3.82
2023-01-26T07:07:57.167Z,4.13
2023-01-26T07:10:25.531Z,4.28
2023-01-26T07:12:53.951Z,4.30
2023-01-26T07:15:22.672Z,4.25
2023-01-26T07:17:51.690Z,4.30
2023-01-26T07:20:20.170Z,4.35
2023-01-26T07:22:48.726Z,4.38
2023-01-26T07:25:17.866Z,4.40
2023-01-26T07:27:46.779Z,4.51
2023-01-26T07:30:16.123Z,4.43
2023-01-26T07:32:45.717Z,4.49
2023-01-26T07:35:14.574Z,4.54
2023-01-26T07:37:42.963Z,4.58
2023-01-26T07:40:12.628Z,4.40
2023-01-26T07:42:42.887Z,4.38
2023-01-26T07:45:21.768Z,4.44
2023-01-26T07:47:50.823Z,4.31
2023-01-26T07:50:21.274Z,4.45
2023-01-26T07:52:49.829Z,4.61
2023-01-26T07:55:21.621Z,4.80
2023-01-26T07:57:50.458Z,4.65
2023-01-26T08:00:19.867Z,4.84
2023-01-26T08:02:51.825Z,5.07
2023-01-26T08:05:20.814Z,5.21
2023-01-26T08:07:49.390Z,5.45
2023-01-26T08:10:18.470Z,6.07
2023-01-26T08:12:46.911Z,6.39
2023-01-26T08:15:15.581Z,6.44
2023-01-26T08:17:44.345Z,6.96
2023-01-26T08:20:14.399Z,7.75
2023-01-26T08:22:43.020Z,8.50
2023-01-26T08:25:11.508Z,9.14
2023-01-26T08:27:39.912Z,9.75
2023-01-26T08:30:09.881Z,10.21
2023-01-26T08:32:38.964Z,10.38
2023-01-26T08:35:07.803Z,10.34
2023-01-26T08:37:36.444Z,10.26
2023-01-26T08:40:05.464Z,10.65
2023-01-26T08:42:35.202Z,10.96
2023-01-26T08:45:04.003Z,10.87
2023-01-26T08:47:34.293Z,11.30
2023-01-26T08:50:02.828Z,11.57
2023-01-26T08:52:33.478Z,11.65
2023-01-26T08:55:03.494Z,12.07
2023-01-26T08:57:32.897Z,12.18
2023-01-26T09:00:01.409Z,12.52
2023-01-26T09:02:30.427Z,12.98
2023-01-26T09:04:59.071Z,13.42
2023-01-26T09:07:27.769Z,13.84
2023-01-26T09:09:56.622Z,14.29
2023-01-26T09:12:25.321Z,14.61
2023-01-26T09:14:53.742Z,14.75
2023-01-26T09:17:34.918Z,14.86
2023-01-26T09:20:09.147Z,15.15
2023-01-26T09:22:38.010Z,15.49
2023-01-26T09:25:07.071Z,15.64
2023-01-26T09:27:35.706Z,15.90
2023-01-26T09:30:05.424Z,15.60
2023-01-26T09:32:34.124Z,15.54
2023-01-26T09:35:02.896Z,15.67
2023-01-26T09:37:31.683Z,15.27
2023-01-26T09:40:00.071Z,15.05
2023-01-26T09:42:55.177Z,15.25
2023-01-26T09:45:34.021Z,15.47
2023-01-26T09:48:14.692Z,15.26
2023-01-26T09:50:57.125Z,14.97
2023-01-26T09:53:31.315Z,14.81
2023-01-26T09:56:00.419Z,15.03
2023-01-26T09:58:34.539Z,15.44
2023-01-26T10:01:03.201Z,15.67
2023-01-26T10:03:41.888Z,15.87
2023-01-26T10:06:21.978Z,15.69
2023-01-26T10:09:26.914Z,15.30
2023-01-26T10:11:58.529Z,15.34
2023-01-26T10:14:37.606Z,15.43
2023-01-26T10:17:06.619Z,15.44
2023-01-26T10:19:39.793Z,15.60
2023-01-26T10:22:37.567Z,15.75
2023-01-26T10:25:46.526Z,15.65
2023-01-26T10:28:16.636Z,15.43
2023-01-26T10:30:46.919Z,14.99
2023-01-26T10:33:31.190Z,14.86
2023-01-26T10:36:01.292Z,14.76
2023-01-26T10:38:33.497Z,14.60
2023-01-26T10:41:03.734Z,14.58
2023-01-26T10:43:36.548Z,14.69
2023-01-26T10:46:05.645Z,14.87
2023-01-26T10:48:34.693Z,15.00
2023-01-26T10:51:27.850Z,14.99
2023-01-26T10:54:21.617Z,14.55
2023-01-26T10:56:55.624Z,14.34
2023-01-26T10:59:27.454Z,14.15
2023-01-26T11:02:14.718Z,13.87
2023-01-26T11:05:04.205Z,13.74
2023-01-26T11:07:38.904Z,13.59
2023-01-26T11:10:39.924Z,13.25
2023-01-26T11:13:20.534Z,12.59
2023-01-26T11:15:51.290Z,12.43
2023-01-26T11:18:24.167Z,12.39
2023-01-26T11:21:17.208Z,12.18
2023-01-26T11:23:51.699Z,11.92
2023-01-26T11:26:27.024Z,11.67
2023-01-26T11:29:10.539Z,11.30
2023-01-26T11:31:46.269Z,11.05
2023-01-26T11:34:52.752Z,10.78
2023-01-26T11:38:09.778Z,10.45
2023-01-26T11:40:44.882Z,10.12
2023-01-26T11:43:50.379Z,10.06
2023-01-26T11:46:38.942Z,9.73
2023-01-26T11:49:34.080Z,9.65
2023-01-26T11:52:39.559Z,9.46
2023-01-26T11:55:26.750Z,9.88
2023-01-26T11:58:01.854Z,10.01
2023-01-26T12:00:42.018Z,9.60
2023-01-26T12:03:28.281Z,9.59
2023-01-26T12:06:03.093Z,9.68
2023-01-26T12:09:11.986Z,9.85
2023-01-26T12:11:49.221Z,9.80
2023-01-26T12:14:45.283Z,9.47
2023-01-26T12:17:29.055Z,9.59
2023-01-26T12:20:04.908Z,9.56
2023-01-26T12:22:42.030Z,9.47
2023-01-26T12:25:37.638Z,9.29
2023-01-26T12:28:20.293Z,9.35
2023-01-26T12:31:01.393Z,9.40
2023-01-26T12:33:34.330Z,9.59
2023-01-26T12:36:28.008Z,9.59
2023-01-26T12:39:00.888Z,9.66
2023-01-26T12:41:56.381Z,9.69
2023-01-26T12:44:37.211Z,9.78
2023-01-26T12:47:27.347Z,9.84
2023-01-26T12:50:44.106Z,9.93
2023-01-26T12:53:30.407Z,10.16
2023-01-26T12:56:05.002Z,10.12
2023-01-26T12:58:35.879Z,10.15
2023-01-26T13:01:08.984Z,10.06
2023-01-26T13:03:44.804Z,9.84
2023-01-26T13:06:13.459Z,9.69
2023-01-26T13:08:53.793Z,9.53
2023-01-26T13:11:52.708Z,9.51
2023-01-26T13:14:24.237Z,9.36
2023-01-26T13:16:52.795Z,9.36
2023-01-26T13:19:43.506Z,9.06
2023-01-26T13:22:24.379Z,9.16
2023-01-26T13:24:56.873Z,9.36
2023-01-26T13:27:41.342Z,9.33
2023-01-26T13:30:53.877Z,9.31
2023-01-26T13:33:26.232Z,9.22
2023-01-26T13:35:54.916Z,9.30
2023-01-26T13:38:37.527Z,9.23
2023-01-26T13:41:24.344Z,9.11
2023-01-26T13:44:10.723Z,8.96
2023-01-26T13:46:41.081Z,9.02
2023-01-26T13:49:42.572Z,9.08
2023-01-26T13:52:28.336Z,9.14
2023-01-26T13:55:02.294Z,9.08
2023-01-26T13:57:31.780Z,9.05
2023-01-26T14:00:01.311Z,9.01
2023-01-26T14:02:36.332Z,8.89
2023-01-26T14:05:05.088Z,8.68
2023-01-26T14:07:43.874Z,8.46
2023-01-26T14:10:19.624Z,8.40
2023-01-26T14:12:52.799Z,8.16
2023-01-26T14:15:29.447Z,8.07
2023-01-26T14:18:03.029Z,8.09
2023-01-26T14:20:35.285Z,8.04
2023-01-26T14:23:07.981Z,7.98
2023-01-26T14:25:37.613Z,8.04
2023-01-26T14:28:05.962Z,8.05
2023-01-26T14:30:35.623Z,8.02
2023-01-26T14:33:04.588Z,7.92
2023-01-26T14:35:33.100Z,7.84
2023-01-26T14:38:13.103Z,7.79
2023-01-26T14:40:46.580Z,7.60
2023-01-26T14:43:15.028Z,7.45
2023-01-26T14:45:56.294Z,7.44
2023-01-26T14:48:28.377Z,7.51
2023-01-26T14:50:57.578Z,7.49
2023-01-26T14:53:26.122Z,7.48
2023-01-26T14:55:55.156Z,7.38
2023-01-26T14:58:33.058Z,7.39
2023-01-26T15:01:01.960Z,7.33
2023-01-26T15:03:34.484Z,7.26
2023-01-26T15:06:15.598Z,7.18
2023-01-26T15:08:59.901Z,7.21
2023-01-26T15:11:57.565Z,7.12
2023-01-26T15:14:39.184Z,7.14
2023-01-26T15:17:07.888Z,7.10
2023-01-26T15:19:41.769Z,7.00
2023-01-26T15:22:18.588Z,7.10
2023-01-26T15:25:02.792Z,7.03
2023-01-26T15:27:33.304Z,6.76
2023-01-26T15:30:02.361Z,6.70
2023-01-26T15:32:33.521Z,6.67
2023-01-26T15:35:25.972Z,6.65
2023-01-26T15:38:01.780Z,6.67
2023-01-26T15:40:47.719Z,6.78
2023-01-26T15:43:28.718Z,6.65
2023-01-26T15:46:01.480Z,6.52
2023-01-26T15:48:32.007Z,6.56
2023-01-26T15:51:00.489Z,6.45
2023-01-26T15:53:29.263Z,6.60
2023-01-26T15:56:01.022Z,6.64
2023-01-26T15:58:31.862Z,6.71
2023-01-26T16:01:00.726Z,6.66
2023-01-26T16:03:29.673Z,6.72
2023-01-26T16:05:58.140Z,6.67
2023-01-26T16:08:26.647Z,6.69
2023-01-26T16:10:57.034Z,6.65
2023-01-26T16:13:25.779Z,6.67
2023-01-26T16:15:54.438Z,6.69
2023-01-26T16:18:22.894Z,6.61
2023-01-26T16:20:51.161Z,6.50
2023-01-26T16:23:20.712Z,6.50
2023-01-26T16:25:51.471Z,6.49
2023-01-26T16:28:20.083Z,6.45
2023-01-26T16:30:50.388Z,6.33
2023-01-26T16:33:22.029Z,6.29
2023-01-26T16:35:50.294Z,6.39
2023-01-26T16:38:19.365Z,6.39
2023-01-26T16:40:48.291Z,6.35
2023-01-26T16:43:23.796Z,6.32
2023-01-26T16:45:53.003Z,6.14
2023-01-26T16:48:21.997Z,6.04
2023-01-26T16:50:52.232Z,5.98
2023-01-26T16:53:29.199Z,5.93
2023-01-26T16:55:57.599Z,5.85
2023-01-26T16:58:26.828Z,5.90
2023-01-26T17:00:55.631Z,5.84
2023-01-26T17:03:24.296Z,5.74
2023-01-26T17:05:55.147Z,5.72
2023-01-26T17:08:23.686Z,5.73
2023-01-26T17:11:02.078Z,5.73
2023-01-26T17:13:32.902Z,5.69
2023-01-26T17:16:01.751Z,5.59
2023-01-26T17:18:33.676Z,5.60
2023-01-26T17:21:03.859Z,5.54
2023-01-26T17:23:34.611Z,5.55
2023-01-26T17:26:03.934Z,5.60
2023-01-26T17:28:35.081Z,5.56
2023-01-26T17:31:11.004Z,5.52
2023-01-26T17:33:40.240Z,5.47
2023-01-26T17:36:09.183Z,5.45
2023-01-26T17:38:39.209Z,5.46
2023-01-26T17:41:08.242Z,5.64
2023-01-26T17:43:38.467Z,5.55
2023-01-26T17:46:14.020Z,5.44
2023-01-26T17:48:45.303Z,5.40
2023-01-26T17:51:19.083Z,5.37
2023-01-26T17:53:49.814Z,5.29
2023-01-26T17:56:20.077Z,5.17
2023-01-26T17:58:53.498Z,5.12
2023-01-26T18:01:23.218Z,5.20
2023-01-26T18:03:53.770Z,5.22
2023-01-26T18:06:22.474Z,5.32
2023-01-26T18:08:52.103Z,5.28
2023-01-26T18:11:20.678Z,5.34
2023-01-26T18:13:49.478Z,5.47
2023-01-26T18:16:20.094Z,5.54
2023-01-26T18:18:48.956Z,5.49
2023-01-26T18:21:22.836Z,5.45
2023-01-26T18:23:52.749Z,5.42
2023-01-26T18:26:24.972Z,5.38
2023-01-26T18:28:53.428Z,5.33
2023-01-26T18:31:27.262Z,5.29
2023-01-26T18:33:59.308Z,5.22
2023-01-26T18:36:27.999Z,5.20
2023-01-26T18:39:01.512Z,5.30
2023-01-26T18:41:31.336Z,5.25
2023-01-26T18:44:00.510Z,5.11
2023-01-26T18:46:31.170Z,5.15
2023-01-26T18:49:01.153Z,5.16
2023-01-26T18:51:31.157Z,5.21
2023-01-26T18:53:59.581Z,5.23
2023-01-26T18:56:28.839Z,5.24
2023-01-26T18:58:57.770Z,5.21
2023-01-26T19:01:26.470Z,5.14
2023-01-26T19:03:55.913Z,5.13
2023-01-26T19:06:25.798Z,5.23
2023-01-26T19:08:59.502Z,5.31
2023-01-26T19:11:31.286Z,5.28
2023-01-26T19:13:59.985Z,5.19
2023-01-26T19:16:29.262Z,5.25
2023-01-26T19:18:57.982Z,5.24
2023-01-26T19:21:28.216Z,5.22
2023-01-26T19:23:58.812Z,5.14
2023-01-26T19:26:30.965Z,4.81
2023-01-26T19:29:01.989Z,4.65
2023-01-26T19:31:32.337Z,4.64
2023-01-26T19:34:02.754Z,4.63
2023-01-26T19:36:32.799Z,4.61
2023-01-26T19:39:04.803Z,4.59
2023-01-26T19:41:34.843Z,4.60
2023-01-26T19:44:03.335Z,4.54
2023-01-26T19:46:32.154Z,4.43
2023-01-26T19:49:00.687Z,4.43
2023-01-26T19:51:30.126Z,4.36
2023-01-26T19:54:02.390Z,4.32
2023-01-26T19:56:32.600Z,4.32
2023-01-26T19:59:04.028Z,4.31
2023-01-26T20:01:33.651Z,4.15
2023-01-26T20:04:04.271Z,4.04
2023-01-26T20:06:36.870Z,4.01
2023-01-26T20:09:06.313Z,3.99
2023-01-26T20:11:35.215Z,4.16
2023-01-26T20:14:09.054Z,4.18
2023-01-26T20:16:38.186Z,4.09
2023-01-26T20:19:07.079Z,4.09
2023-01-26T20:21:35.827Z,4.10
2023-01-26T20:24:06.390Z,4.08
2023-01-26T20:26:36.405Z,4.16
2023-01-26T20:29:05.237Z,4.27
2023-01-26T20:31:34.266Z,4.30
2023-01-26T20:34:04.524Z,4.32
2023-01-26T20:36:33.975Z,4.24
2023-01-26T20:39:02.816Z,4.18
2023-01-26T20:41:33.617Z,4.10
2023-01-26T20:44:06.978Z,3.98
2023-01-26T20:46:37.927Z,3.92
2023-01-26T20:49:08.892Z,4.01
2023-01-26T20:51:40.729Z,4.11
2023-01-26T20:54:12.266Z,4.16
2023-01-26T20:56:41.185Z,4.20
2023-01-26T20:59:10.839Z,4.17
2023-01-26T21:01:39.464Z,4.24
2023-01-26T21:04:07.696Z,4.30
2023-01-26T21:06:39.369Z,4.27
2023-01-26T21:09:12.677Z,4.12
2023-01-26T21:11:41.759Z,4.13
2023-01-26T21:14:11.714Z,4.06
2023-01-26T21:16:41.673Z,4.04
2023-01-26T21:19:10.168Z,3.98
2023-01-26T21:21:38.581Z,3.98
2023-01-26T21:24:07.378Z,3.92
2023-01-26T21:26:35.820Z,3.91
2023-01-26T21:29:07.832Z,3.87
2023-01-26T21:31:36.461Z,3.89
2023-01-26T21:34:05.221Z,3.89
2023-01-26T21:36:34.926Z,3.91
2023-01-26T21:39:03.810Z,3.91
2023-01-26T21:41:52.403Z,3.88
2023-01-26T21:44:58.947Z,3.88
2023-01-26T21:47:27.651Z,3.77
2023-01-26T21:49:58.820Z,3.75
2023-01-26T21:52:45.756Z,3.68
2023-01-26T21:55:14.505Z,3.68
2023-01-26T21:58:01.352Z,3.66
2023-01-26T22:00:31.698Z,3.73
2023-01-26T22:03:01.147Z,3.76
2023-01-26T22:05:29.739Z,3.72
2023-01-26T22:07:58.810Z,3.70
2023-01-26T22:10:29.083Z,3.75
2023-01-26T22:12:57.333Z,3.72
2023-01-26T22:15:26.200Z,3.57
2023-01-26T22:17:58.469Z,3.52
2023-01-26T22:20:27.296Z,3.64
2023-01-26T22:22:55.707Z,3.55
2023-01-26T22:25:24.914Z,3.54
2023-01-26T22:27:53.343Z,3.51
2023-01-26T22:30:21.756Z,3.40
2023-01-26T22:32:50.518Z,3.29
2023-01-26T22:35:19.274Z,3.20
2023-01-26T22:37:47.942Z,2.94
2023-01-26T22:40:16.750Z,3.00
2023-01-26T22:42:45.190Z,3.06
2023-01-26T22:45:14.246Z,3.03
2023-01-26T22:47:42.699Z,3.03
2023-01-26T22:50:11.909Z,3.09
2023-01-26T22:52:41.653Z,3.11
2023-01-26T22:55:10.322Z,3.14
2023-01-26T22:57:38.884Z,3.11
2023-01-26T23:00:08.294Z,2.92
2023-01-26T23:02:37.153Z,2.92
2023-01-26T23:05:06.249Z,2.90
2023-01-26T23:07:34.752Z,2.82
2023-01-26T23:10:03.528Z,2.72
2023-01-26T23:12:31.963Z,2.67
2023-01-26T23:15:00.890Z,2.67
2023-01-26T23:17:29.823Z,2.67
2023-01-26T23:19:59.307Z,2.71
2023-01-26T23:22:27.660Z,2.75
2023-01-26T23:25:15.135Z,2.78
2023-01-26T23:27:43.499Z,2.70
2023-01-26T23:30:13.094Z,2.66
2023-01-26T23:32:41.780Z,2.66
2023-01-26T23:35:10.102Z,2.67
2023-01-26T23:37:38.629Z,2.67
2023-01-26T23:40:07.832Z,2.66
2023-01-26T23:42:55.823Z,2.70
2023-01-26T23:45:24.854Z,2.73
2023-01-26T23:47:53.447Z,2.72
2023-01-26T23:50:21.979Z,2.72
2023-01-26T23:52:52.771Z,2.58
2023-01-26T23:55:21.215Z,2.49
2023-01-26T23:57:50.200Z,2.46
